createdAt,value
2023-06-04T00:02:00.834Z,11.33
2023-06-04T00:04:27.634Z,11.27
2023-06-04T00:06:55.500Z,11.03
2023-06-04T00:09:22.458Z,10.99
2023-06-04T00:11:49.380Z,10.98
2023-06-04T00:14:19.157Z,11.03
2023-06-04T00:16:46.000Z,11.04
2023-06-04T00:19:13.001Z,11.07
2023-06-04T00:21:39.721Z,10.99
2023-06-04T00:24:06.858Z,10.94
2023-06-04T00:26:34.180Z,10.87
2023-06-04T00:29:02.145Z,10.80
2023-06-04T00:31:28.892Z,10.80
2023-06-04T00:33:55.896Z,10.82
2023-06-04T00:36:23.265Z,10.68
2023-06-04T00:38:49.967Z,10.65
2023-06-04T00:41:16.849Z,10.59
2023-06-04T00:43:47.059Z,10.55
2023-06-04T00:46:19.721Z,10.67
2023-06-04T00:48:46.529Z,10.63
2023-06-04T00:51:13.961Z,10.47
2023-06-04T00:53:41.004Z,10.51
2023-06-04T00:56:07.999Z,10.45
2023-06-04T00:58:40.201Z,10.25
2023-06-04T01:01:16.939Z,9.97
2023-06-04T01:03:59.469Z,10.01
2023-06-04T01:06:45.060Z,9.95
2023-06-04T01:09:12.367Z,9.98
2023-06-04T01:11:40.860Z,10.00
2023-06-04T01:14:10.200Z,10.12
2023-06-04T01:17:16.607Z,10.18
2023-06-04T01:20:42.143Z,9.89
2023-06-04T01:23:30.279Z,9.88
2023-06-04T01:25:58.799Z,9.82
2023-06-04T01:28:28.214Z,9.90
2023-06-04T01:30:57.860Z,9.90
2023-06-04T01:33:24.647Z,9.91
2023-06-04T01:35:51.356Z,9.72
2023-06-04T01:38:18.285Z,9.63
2023-06-04T01:40:45.411Z,9.67
2023-06-04T01:43:12.162Z,9.49
2023-06-04T01:45:38.844Z,9.47
2023-06-04T01:48:06.837Z,9.36
2023-06-04T01:50:34.095Z,9.39
2023-06-04T01:53:00.866Z,9.41
2023-06-04T01:55:29.511Z,9.41
2023-06-04T01:57:56.377Z,9.31
2023-06-04T02:00:23.883Z,9.29
2023-06-04T02:02:50.746Z,9.31
2023-06-04T02:05:17.821Z,9.26
2023-06-04T02:07:46.548Z,9.24
2023-06-04T02:10:15.421Z,9.29
2023-06-04T02:12:54.224Z,9.25
2023-06-04T02:15:21.560Z,9.09
2023-06-04T02:17:49.012Z,9.04
2023-06-04T02:20:16.379Z,9.11
2023-06-04T02:22:43.373Z,8.91
2023-06-04T02:25:13.237Z,8.93
2023-06-04T02:27:39.990Z,8.89
2023-06-04T02:30:07.430Z,8.73
2023-06-04T02:32:35.124Z,8.67
2023-06-04T02:35:01.901Z,8.71
2023-06-04T02:37:28.655Z,8.54
2023-06-04T02:39:55.597Z,8.67
2023-06-04T02:42:22.350Z,8.73
2023-06-04T02:44:49.074Z,8.79
2023-06-04T02:47:15.740Z,8.62
2023-06-04T02:49:42.497Z,8.54
2023-06-04T02:52:09.137Z,8.62
2023-06-04T02:54:35.999Z,8.70
2023-06-04T02:57:03.103Z,8.77
2023-06-04T02:59:29.873Z,8.66
2023-06-04T03:01:56.624Z,8.77
2023-06-04T03:04:23.358Z,8.54
2023-06-04T03:06:53.960Z,8.42
2023-06-04T03:09:20.906Z,8.35
2023-06-04T03:11:47.657Z,8.43
2023-06-04T03:14:14.429Z,8.29
2023-06-04T03:16:41.274Z,7.98
2023-06-04T03:19:08.146Z,8.13
2023-06-04T03:21:34.920Z,8.13
2023-06-04T03:24:01.688Z,8.11
2023-06-04T03:26:29.209Z,8.14
2023-06-04T03:28:56.024Z,8.14
2023-06-04T03:31:22.769Z,8.27
2023-06-04T03:33:49.794Z,8.36
2023-06-04T03:36:17.673Z,8.08
2023-06-04T03:38:46.959Z,8.06
2023-06-04T03:41:13.712Z,8.05
2023-06-04T03:43:40.389Z,8.04
2023-06-04T03:46:07.122Z,8.13
2023-06-04T03:48:34.060Z,8.23
2023-06-04T03:51:01.196Z,8.26
2023-06-04T03:53:27.938Z,8.26
2023-06-04T03:55:54.698Z,8.22
2023-06-04T03:58:22.716Z,8.10
2023-06-04T04:00:49.442Z,8.32
2023-06-04T04:03:16.249Z,8.39
2023-06-04T04:05:42.989Z,8.55
2023-06-04T04:08:10.366Z,8.41
2023-06-04T04:10:37.096Z,8.36
2023-06-04T04:13:03.923Z,8.38
2023-06-04T04:15:30.660Z,8.46
2023-06-04T04:17:57.455Z,8.52
2023-06-04T04:20:24.229Z,8.59
2023-06-04T04:22:51.787Z,8.63
2023-06-04T04:25:18.530Z,8.73
2023-06-04T04:27:45.525Z,8.84
2023-06-04T04:30:14.030Z,8.94
2023-06-04T04:32:50.252Z,8.97
2023-06-04T04:35:19.642Z,9.10
2023-06-04T04:37:46.533Z,9.18
2023-06-04T04:40:13.944Z,9.17
2023-06-04T04:42:40.888Z,9.26
2023-06-04T04:45:08.625Z,9.32
2023-06-04T04:47:35.363Z,9.42
2023-06-04T04:50:02.150Z,9.57
2023-06-04T04:52:28.971Z,9.71
2023-06-04T04:54:57.353Z,9.77
2023-06-04T04:57:24.752Z,9.89
2023-06-04T04:59:51.654Z,10.11
2023-06-04T05:02:18.587Z,10.23
2023-06-04T05:04:45.705Z,10.30
2023-06-04T05:07:12.551Z,10.34
2023-06-04T05:09:39.282Z,10.49
2023-06-04T05:12:06.781Z,10.57
2023-06-04T05:14:34.116Z,10.67
2023-06-04T05:17:00.840Z,10.82
2023-06-04T05:19:27.591Z,10.97
2023-06-04T05:21:54.761Z,11.12
2023-06-04T05:24:21.531Z,11.26
2023-06-04T05:26:49.638Z,11.38
2023-06-04T05:29:16.728Z,11.46
2023-06-04T05:31:43.845Z,11.61
2023-06-04T05:34:10.917Z,11.65
2023-06-04T05:36:37.773Z,11.85
2023-06-04T05:39:05.537Z,11.93
2023-06-04T05:41:32.331Z,12.12
2023-06-04T05:43:59.105Z,12.25
2023-06-04T05:46:25.966Z,12.26
2023-06-04T05:48:52.709Z,12.47
2023-06-04T05:51:19.532Z,12.60
2023-06-04T05:53:46.522Z,12.74
2023-06-04T05:56:13.425Z,12.86
2023-06-04T05:58:40.259Z,12.99
2023-06-04T06:01:07.915Z,13.14
2023-06-04T06:03:35.111Z,13.36
2023-06-04T06:06:02.495Z,13.53
2023-06-04T06:08:29.366Z,13.64
2023-06-04T06:10:57.104Z,13.54
2023-06-04T06:13:23.982Z,13.65
2023-06-04T06:15:50.996Z,13.76
2023-06-04T06:18:17.810Z,13.93
2023-06-04T06:20:44.543Z,13.90
2023-06-04T06:23:11.496Z,13.99
2023-06-04T06:25:38.242Z,14.15
2023-06-04T06:28:05.020Z,14.35
2023-06-04T06:30:31.819Z,14.51
2023-06-04T06:32:58.855Z,14.71
2023-06-04T06:35:25.592Z,14.72
2023-06-04T06:37:52.315Z,14.84
2023-06-04T06:40:19.040Z,14.90
2023-06-04T06:42:52.591Z,15.07
2023-06-04T06:45:20.480Z,15.21
2023-06-04T06:47:47.310Z,15.26
2023-06-04T06:50:14.125Z,15.33
2023-06-04T06:52:41.084Z,15.45
2023-06-04T06:55:08.384Z,15.62
2023-06-04T06:57:35.108Z,15.72
2023-06-04T07:00:02.115Z,15.99
2023-06-04T07:02:30.264Z,15.87
2023-06-04T07:04:57.164Z,15.97
2023-06-04T07:07:24.296Z,16.04
2023-06-04T07:09:51.490Z,16.01
2023-06-04T07:12:18.239Z,16.19
2023-06-04T07:14:45.040Z,16.30
2023-06-04T07:17:11.962Z,16.40
2023-06-04T07:19:38.622Z,16.62
2023-06-04T07:22:05.432Z,16.86
2023-06-04T07:24:32.223Z,16.99
2023-06-04T07:26:59.040Z,17.04
2023-06-04T07:29:25.849Z,17.11
2023-06-04T07:31:52.796Z,17.01
2023-06-04T07:34:19.657Z,17.27
2023-06-04T07:36:46.543Z,17.30
2023-06-04T07:39:13.273Z,17.32
2023-06-04T07:41:40.021Z,17.30
2023-06-04T07:44:06.856Z,17.52
2023-06-04T07:46:33.602Z,17.64
2023-06-04T07:49:00.315Z,17.66
2023-06-04T07:51:27.289Z,17.69
2023-06-04T07:53:54.041Z,17.89
2023-06-04T07:56:21.003Z,18.06
2023-06-04T07:58:48.185Z,18.14
2023-06-04T08:01:14.900Z,18.33
2023-06-04T08:03:43.172Z,18.47
2023-06-04T08:06:12.199Z,18.45
2023-06-04T08:08:39.169Z,18.65
2023-06-04T08:11:06.034Z,18.69
2023-06-04T08:13:33.110Z,18.85
2023-06-04T08:16:00.546Z,18.96
2023-06-04T08:18:27.441Z,19.25
2023-06-04T08:20:54.462Z,19.19
2023-06-04T08:23:21.240Z,19.27
2023-06-04T08:25:48.082Z,19.41
2023-06-04T08:28:17.084Z,19.40
2023-06-04T08:30:43.959Z,19.40
2023-06-04T08:33:12.313Z,19.37
2023-06-04T08:35:39.300Z,19.55
2023-06-04T08:38:06.357Z,19.71
2023-06-04T08:40:33.241Z,19.79
2023-06-04T08:43:01.711Z,19.80
2023-06-04T08:45:29.206Z,19.82
2023-06-04T08:47:56.360Z,19.73
2023-06-04T08:50:25.676Z,19.75
2023-06-04T08:52:58.087Z,19.86
2023-06-04T08:55:25.269Z,19.75
2023-06-04T08:57:54.961Z,19.79
2023-06-04T09:00:22.042Z,19.91
2023-06-04T09:02:49.229Z,20.04
2023-06-04T09:05:23.982Z,19.78
2023-06-04T09:07:54.747Z,19.84
2023-06-04T09:10:23.648Z,20.02
2023-06-04T09:12:51.698Z,20.08
2023-06-04T09:15:18.554Z,19.95
2023-06-04T09:17:45.693Z,20.14
2023-06-04T09:20:22.998Z,20.18
2023-06-04T09:22:49.838Z,20.42
2023-06-04T09:25:26.673Z,20.41
2023-06-04T09:27:56.716Z,20.41
2023-06-04T09:30:24.734Z,20.44
2023-06-04T09:32:51.874Z,20.25
2023-06-04T09:35:20.374Z,20.45
2023-06-04T09:37:58.234Z,20.65
2023-06-04T09:40:25.926Z,21.03
2023-06-04T09:42:56.561Z,21.05
2023-06-04T09:45:34.112Z,20.93
2023-06-04T09:48:02.018Z,21.12
2023-06-04T09:50:33.635Z,21.25
2023-06-04T09:53:01.189Z,21.31
2023-06-04T09:55:27.916Z,21.06
2023-06-04T09:57:54.736Z,21.02
2023-06-04T10:00:24.305Z,21.17
2023-06-04T10:03:00.068Z,21.26
2023-06-04T10:05:27.913Z,21.08
2023-06-04T10:07:56.519Z,21.38
2023-06-04T10:10:26.829Z,21.45
2023-06-04T10:13:04.667Z,21.32
2023-06-04T10:15:33.627Z,21.24
2023-06-04T10:18:00.462Z,21.28
2023-06-04T10:20:27.185Z,21.40
2023-06-04T10:22:54.647Z,21.51
2023-06-04T10:25:21.846Z,21.38
2023-06-04T10:27:48.808Z,21.41
2023-06-04T10:30:15.748Z,21.46
2023-06-04T10:32:42.687Z,21.52
2023-06-04T10:35:10.053Z,21.69
2023-06-04T10:37:36.951Z,21.66
2023-06-04T10:40:06.437Z,21.57
2023-06-04T10:42:42.545Z,21.79
2023-06-04T10:45:11.357Z,21.59
2023-06-04T10:47:42.101Z,21.65
2023-06-04T10:50:12.103Z,21.74
2023-06-04T10:52:41.130Z,21.71
2023-06-04T10:55:09.736Z,21.65
2023-06-04T10:57:37.891Z,21.62
2023-06-04T11:00:10.994Z,21.74
2023-06-04T11:02:38.744Z,21.53
2023-06-04T11:05:08.894Z,21.64
2023-06-04T11:07:49.906Z,21.58
2023-06-04T11:10:18.505Z,21.89
2023-06-04T11:12:53.348Z,22.07
2023-06-04T11:15:20.143Z,22.04
2023-06-04T11:17:54.363Z,22.32
2023-06-04T11:20:22.892Z,22.49
2023-06-04T11:22:57.454Z,22.58
2023-06-04T11:25:27.450Z,22.02
2023-06-04T11:27:55.244Z,21.89
2023-06-04T11:30:22.091Z,22.08
2023-06-04T11:32:49.818Z,22.34
2023-06-04T11:35:16.693Z,22.44
2023-06-04T11:37:43.444Z,22.65
2023-06-04T11:40:20.796Z,22.52
2023-06-04T11:42:48.919Z,22.31
2023-06-04T11:45:19.035Z,22.56
2023-06-04T11:47:48.052Z,22.52
2023-06-04T11:50:15.302Z,22.50
2023-06-04T11:52:43.037Z,22.83
2023-06-04T11:55:18.239Z,22.71
2023-06-04T11:57:46.206Z,22.72
2023-06-04T12:00:14.526Z,22.78
2023-06-04T12:02:55.023Z,22.98
2023-06-04T12:05:24.949Z,23.02
2023-06-04T12:07:52.431Z,23.08
2023-06-04T12:10:22.817Z,23.05
2023-06-04T12:12:56.033Z,22.90
2023-06-04T12:15:23.998Z,22.88
2023-06-04T12:17:52.670Z,22.90
2023-06-04T12:20:20.835Z,22.71
2023-06-04T12:25:27.459Z,23.11
2023-06-04T12:27:54.487Z,23.12
2023-06-04T12:30:21.562Z,23.32
2023-06-04T12:32:49.317Z,23.43
2023-06-04T12:35:17.416Z,23.46
2023-06-04T12:37:44.252Z,23.29
2023-06-04T12:40:11.626Z,23.31
2023-06-04T12:42:38.418Z,23.17
2023-06-04T12:45:06.265Z,23.47
2023-06-04T12:47:33.098Z,23.32
2023-06-04T12:49:59.918Z,23.14
2023-06-04T12:52:26.846Z,23.23
2023-06-04T12:54:53.582Z,23.55
2023-06-04T12:57:20.417Z,23.63
2023-06-04T12:59:47.212Z,23.30
2023-06-04T13:02:14.012Z,22.85
2023-06-04T13:04:42.933Z,22.71
2023-06-04T13:07:09.689Z,22.96
2023-06-04T13:09:36.669Z,23.09
2023-06-04T13:12:04.964Z,23.25
2023-06-04T13:14:34.354Z,23.41
2023-06-04T13:17:14.010Z,23.38
2023-06-04T13:19:48.666Z,23.19
2023-06-04T13:22:15.701Z,23.42
2023-06-04T13:24:42.881Z,23.39
2023-06-04T13:27:09.668Z,23.47
2023-06-04T13:29:36.515Z,23.55
2023-06-04T13:32:03.591Z,23.75
2023-06-04T13:34:32.287Z,23.68
2023-06-04T13:36:59.042Z,23.71
2023-06-04T13:39:25.860Z,23.88
2023-06-04T13:41:52.666Z,23.75
2023-06-04T13:44:19.547Z,23.64
2023-06-04T13:46:46.544Z,23.58
2023-06-04T13:49:13.309Z,23.34
2023-06-04T13:51:40.034Z,23.35
2023-06-04T13:54:06.795Z,23.55
2023-06-04T13:56:33.695Z,23.80
2023-06-04T13:59:00.539Z,23.64
2023-06-04T14:01:27.270Z,23.76
2023-06-04T14:03:54.776Z,23.71
2023-06-04T14:06:21.846Z,23.48
2023-06-04T14:08:48.686Z,23.59
2023-06-04T14:11:15.478Z,23.77
2023-06-04T14:13:46.371Z,24.10
2023-06-04T14:16:13.332Z,24.31
2023-06-04T14:18:40.443Z,24.25
2023-06-04T14:21:07.479Z,24.12
2023-06-04T14:23:34.455Z,24.24
2023-06-04T14:26:01.647Z,24.13
2023-06-04T14:28:28.445Z,24.01
2023-06-04T14:30:55.161Z,23.92
2023-06-04T14:33:21.878Z,23.82
2023-06-04T14:35:48.716Z,23.40
2023-06-04T14:38:16.053Z,23.52
2023-06-04T14:40:45.008Z,23.88
2023-06-04T14:43:12.810Z,24.02
2023-06-04T14:45:41.044Z,24.02
2023-06-04T14:48:15.512Z,24.16
2023-06-04T14:50:43.708Z,23.85
2023-06-04T14:53:10.902Z,24.00
2023-06-04T14:55:38.033Z,23.66
2023-06-04T14:58:05.178Z,23.45
2023-06-04T15:00:32.352Z,23.86
2023-06-04T15:02:59.600Z,23.87
2023-06-04T15:05:26.851Z,23.60
2023-06-04T15:07:53.777Z,23.68
2023-06-04T15:10:20.693Z,23.74
2023-06-04T15:12:47.354Z,23.73
2023-06-04T15:15:14.060Z,24.00
2023-06-04T15:17:40.911Z,24.18
2023-06-04T15:20:08.653Z,24.16
2023-06-04T15:22:35.577Z,24.10
2023-06-04T15:25:02.544Z,23.83
2023-06-04T15:27:29.507Z,24.13
2023-06-04T15:29:56.400Z,24.31
2023-06-04T15:32:23.104Z,24.26
2023-06-04T15:34:51.444Z,24.34
2023-06-04T15:37:18.220Z,24.02
2023-06-04T15:39:45.175Z,24.22
2023-06-04T15:42:13.335Z,23.86
2023-06-04T15:44:40.294Z,23.93
2023-06-04T15:47:07.138Z,24.20
2023-06-04T15:49:34.160Z,24.30
2023-06-04T15:52:01.280Z,24.35
2023-06-04T15:54:44.313Z,24.47
2023-06-04T15:57:12.389Z,24.41
2023-06-04T15:59:39.210Z,24.45
2023-06-04T16:02:07.252Z,24.00
2023-06-04T16:04:34.356Z,24.11
2023-06-04T16:07:01.447Z,24.14
2023-06-04T16:09:29.720Z,24.05
2023-06-04T16:11:59.429Z,24.32
2023-06-04T16:14:26.172Z,24.27
2023-06-04T16:16:53.988Z,24.12
2023-06-04T16:19:21.198Z,24.23
2023-06-04T16:21:48.035Z,24.25
2023-06-04T16:24:14.866Z,24.57
2023-06-04T16:26:41.727Z,24.17
2023-06-04T16:29:08.583Z,24.05
2023-06-04T16:31:35.531Z,24.32
2023-06-04T16:34:02.588Z,24.11
2023-06-04T16:36:29.706Z,23.67
2023-06-04T16:38:57.396Z,23.55
2023-06-04T16:41:24.211Z,23.46
2023-06-04T16:43:51.028Z,23.28
2023-06-04T16:46:17.887Z,23.23
2023-06-04T16:48:45.139Z,23.38
2023-06-04T16:51:12.260Z,23.49
2023-06-04T16:53:39.129Z,23.57
2023-06-04T16:56:06.411Z,23.79
2023-06-04T16:58:35.916Z,23.48
2023-06-04T17:01:03.772Z,23.46
2023-06-04T17:03:31.151Z,23.46
2023-06-04T17:05:58.461Z,23.17
2023-06-04T17:08:25.264Z,23.08
2023-06-04T17:10:52.156Z,23.19
2023-06-04T17:13:18.909Z,22.80
2023-06-04T17:18:12.979Z,22.85
2023-06-04T17:20:40.113Z,22.45
2023-06-04T17:23:24.178Z,22.54
2023-06-04T17:25:51.189Z,22.58
2023-06-04T17:28:18.173Z,22.35
2023-06-04T17:30:45.572Z,22.22
2023-06-04T17:33:12.491Z,22.13
2023-06-04T17:35:39.969Z,21.96
2023-06-04T17:38:06.924Z,22.03
2023-06-04T17:40:33.649Z,21.90
2023-06-04T17:43:00.419Z,21.90
2023-06-04T17:45:27.230Z,21.78
2023-06-04T17:47:54.215Z,21.82
2023-06-04T17:50:21.222Z,21.77
2023-06-04T17:52:48.482Z,21.68
2023-06-04T17:55:16.319Z,21.81
2023-06-04T17:57:43.148Z,21.79
2023-06-04T18:00:11.243Z,21.80
2023-06-04T18:02:38.440Z,21.82
2023-06-04T18:05:05.839Z,21.80
2023-06-04T18:07:32.570Z,21.73
2023-06-04T18:10:00.192Z,21.52
2023-06-04T18:12:27.359Z,21.51
2023-06-04T18:14:54.474Z,21.51
2023-06-04T18:17:21.306Z,21.35
2023-06-04T18:19:48.122Z,21.31
2023-06-04T18:22:15.176Z,21.32
2023-06-04T18:24:41.937Z,21.27
2023-06-04T18:27:08.668Z,21.21
2023-06-04T18:29:35.456Z,21.19
2023-06-04T18:32:02.253Z,21.10
2023-06-04T18:34:30.073Z,21.01
2023-06-04T18:36:58.010Z,20.96
2023-06-04T18:39:25.880Z,20.88
2023-06-04T18:41:55.563Z,20.77
2023-06-04T18:44:26.668Z,20.73
2023-06-04T18:46:53.751Z,20.79
2023-06-04T18:49:24.351Z,20.70
2023-06-04T18:51:52.067Z,20.59
2023-06-04T18:54:19.734Z,20.48
2023-06-04T18:56:46.692Z,20.42
2023-06-04T18:59:14.731Z,20.38
2023-06-04T19:01:41.982Z,20.13
2023-06-04T19:04:09.311Z,19.84
2023-06-04T19:06:36.662Z,19.70
2023-06-04T19:09:04.066Z,19.73
2023-06-04T19:11:30.942Z,19.56
2023-06-04T19:13:58.113Z,19.38
2023-06-04T19:16:25.154Z,19.34
2023-06-04T19:18:53.011Z,19.08
2023-06-04T19:21:19.856Z,18.91
2023-06-04T19:23:47.244Z,18.64
2023-06-04T19:26:15.496Z,18.68
2023-06-04T19:28:42.353Z,18.50
2023-06-04T19:31:09.171Z,18.26
2023-06-04T19:33:36.578Z,18.35
2023-06-04T19:36:03.783Z,18.28
2023-06-04T19:38:30.581Z,18.06
2023-06-04T19:40:57.376Z,18.09
2023-06-04T19:43:24.268Z,18.08
2023-06-04T19:45:51.903Z,18.17
2023-06-04T19:48:18.686Z,18.02
2023-06-04T19:50:46.146Z,17.90
2023-06-04T19:53:12.923Z,17.47
2023-06-04T19:55:39.706Z,17.32
2023-06-04T19:58:06.847Z,17.20
2023-06-04T20:00:33.684Z,16.91
2023-06-04T20:03:02.365Z,16.82
2023-06-04T20:05:29.276Z,16.29
2023-06-04T20:07:56.109Z,16.30
2023-06-04T20:10:23.024Z,16.45
2023-06-04T20:12:49.752Z,16.59
2023-06-04T20:15:16.744Z,16.50
2023-06-04T20:17:43.725Z,16.40
2023-06-04T20:20:11.126Z,16.32
2023-06-04T20:22:37.920Z,16.26
2023-06-04T20:25:05.153Z,16.20
2023-06-04T20:27:32.067Z,16.03
2023-06-04T20:29:59.085Z,16.02
2023-06-04T20:32:25.947Z,15.96
2023-06-04T20:34:52.768Z,16.20
2023-06-04T20:37:19.467Z,16.21
2023-06-04T20:39:50.168Z,16.28
2023-06-04T20:42:17.285Z,16.33
2023-06-04T20:44:44.073Z,16.16
2023-06-04T20:47:11.421Z,16.07
2023-06-04T20:49:38.103Z,16.06
2023-06-04T20:52:05.259Z,16.07
2023-06-04T20:54:34.120Z,15.99
2023-06-04T20:57:00.833Z,15.84
2023-06-04T20:59:27.744Z,15.73
2023-06-04T21:01:54.719Z,15.72
2023-06-04T21:04:21.606Z,15.71
2023-06-04T21:06:48.433Z,15.51
2023-06-04T21:09:15.519Z,15.41
2023-06-04T21:11:42.258Z,15.57
2023-06-04T21:14:09.050Z,15.60
2023-06-04T21:16:35.966Z,15.44
2023-06-04T21:19:02.847Z,15.23
2023-06-04T21:21:29.602Z,15.14
2023-06-04T21:23:57.626Z,15.11
2023-06-04T21:26:24.480Z,15.07
2023-06-04T21:28:51.209Z,14.86
2023-06-04T21:31:17.916Z,14.84
2023-06-04T21:33:44.691Z,14.75
2023-06-04T21:36:14.832Z,14.74
2023-06-04T21:38:42.436Z,14.66
2023-06-04T21:41:09.511Z,14.59
2023-06-04T21:43:36.411Z,14.46
2023-06-04T21:46:03.703Z,14.38
2023-06-04T21:48:30.483Z,14.27
2023-06-04T21:50:57.284Z,14.26
2023-06-04T21:53:24.232Z,14.17
2023-06-04T21:55:51.543Z,14.28
2023-06-04T21:58:20.915Z,14.13
2023-06-04T22:00:48.709Z,13.97
2023-06-04T22:03:15.825Z,13.96
2023-06-04T22:05:42.716Z,13.77
2023-06-04T22:08:09.732Z,13.75
2023-06-04T22:10:36.568Z,13.70
2023-06-04T22:13:03.429Z,13.64
2023-06-04T22:15:30.164Z,13.61
2023-06-04T22:18:00.581Z,13.59
2023-06-04T22:20:27.504Z,13.58
2023-06-04T22:22:54.285Z,13.48
2023-06-04T22:25:21.275Z,13.58
2023-06-04T22:27:48.008Z,13.48
2023-06-04T22:30:14.889Z,13.34
2023-06-04T22:32:41.729Z,13.29
2023-06-04T22:35:08.505Z,13.12
2023-06-04T22:37:35.281Z,13.16
2023-06-04T22:40:02.304Z,12.99
2023-06-04T22:42:29.088Z,13.01
2023-06-04T22:44:55.895Z,12.96
2023-06-04T22:47:22.645Z,12.89
2023-06-04T22:49:49.436Z,12.96
2023-06-04T22:52:16.243Z,12.74
2023-06-04T22:54:42.919Z,12.55
2023-06-04T22:57:09.583Z,12.59
2023-06-04T22:59:36.366Z,12.57
2023-06-04T23:02:03.227Z,12.66
2023-06-04T23:04:29.951Z,12.49
2023-06-04T23:06:56.867Z,12.70
2023-06-04T23:09:23.603Z,12.67
2023-06-04T23:11:51.128Z,12.56
2023-06-04T23:14:17.910Z,12.40
2023-06-04T23:16:44.853Z,12.40
2023-06-04T23:19:11.731Z,12.17
2023-06-04T23:21:38.584Z,12.38
2023-06-04T23:24:05.959Z,12.32
2023-06-04T23:26:32.677Z,12.33
2023-06-04T23:28:59.486Z,12.21
2023-06-04T23:31:26.587Z,12.05
2023-06-04T23:33:53.636Z,12.11
2023-06-04T23:36:20.306Z,12.01
2023-06-04T23:38:48.230Z,11.90
2023-06-04T23:41:15.000Z,11.74
2023-06-04T23:43:41.741Z,11.70
2023-06-04T23:46:08.567Z,11.53
2023-06-04T23:48:35.264Z,11.52
2023-06-04T23:51:01.914Z,11.59
2023-06-04T23:53:28.823Z,11.58
2023-06-04T23:55:55.836Z,11.58
2023-06-04T23:58:22.516Z,11.58
